NC98 weather

Sentara Albemarle Regional Medical Center Heliport
Elizabeth City, North Carolina, United States

Public forecast

Using degrees Fahrenheit for public forecast. Weather courtesy of forecast.io.

Closest aviation weather report (METAR) to Sentara Albemarle Regional Medical Center Heliport

Closest report is Elizabeth City Regional Airport & Coast Guard Air Station, 4.3 nm (8.0 km) SSE. Retrieved 2020/03/31 21:54 UTC (19 minutes ago):

KECG 312154Z 06016KT 10SM -RA BKN012 OVC100 11/08 A2977 RMK AO2 RAE01B07 SLP079 P0000 T01060083

Closest aviation forecast (TAF) to Sentara Albemarle Regional Medical Center Heliport

Closest forecast is Elizabeth City Regional Airport & Coast Guard Air Station, 4.3 nm (8.0 km) SSE. Retrieved 2020/03/31 21:42 UTC (31 minutes ago):

TAF KECG 312035Z 3121/0118 04015KT P6SM -RA BKN015 BKN040 OVC100 FM312300 06010KT 6SM -SHRA OVC025 FM010200 03014G22KT 3SM SHRA OVC009 FM011100 35019G26KT P6SM -RA OVC015 FM011600 35020G30KT P6SM BKN020